Time,TemperatureF,DewpointF,PressureIn,WindDirection,WindDirectionDegrees,WindSpeedMPH,WindSpeedGustMPH,Humidity,HourlyPrecipIn,Conditions,Clouds,dailyrainin,SoftwareType,DateUTC
2013-04-02 00:14:00,48.1,32.0,30.15,NNE,25,2.0,10.0,54,0.00,,,0.00,weatherlink.com 1.10,2013-04-02 04:14:00,
2013-04-02 00:29:00,47.5,32.0,30.15,NE,55,2.0,11.0,55,0.00,,,0.00,weatherlink.com 1.10,2013-04-02 04:29:00,
2013-04-02 00:44:00,47.0,31.0,30.16,NNW,331,4.0,8.0,55,0.00,,,0.00,weatherlink.com 1.10,2013-04-02 04:44:00,
2013-04-02 00:59:00,46.7,32.0,30.16,NNW,333,3.0,10.0,56,0.00,,,0.00,weatherlink.com 1.10,2013-04-02 04:59:00,
2013-04-02 01:14:00,45.9,30.0,30.16,NNW,342,2.0,13.0,55,0.00,,,0.00,weatherlink.com 1.10,2013-04-02 05:14:00,
2013-04-02 01:29:00,45.1,29.0,30.16,NNW,345,4.0,9.0,54,0.00,,,0.00,weatherlink.com 1.10,2013-04-02 05:29:00,
2013-04-02 01:44:00,44.7,28.0,30.16,SE,126,1.0,12.0,53,0.00,,,0.00,weatherlink.com 1.10,2013-04-02 05:44:00,
2013-04-02 01:59:00,44.3,28.0,30.16,NE,37,2.0,7.0,54,0.00,,,0.00,weatherlink.com 1.10,2013-04-02 05:59:00,
2013-04-02 02:14:00,43.9,27.0,30.16,NW,320,1.0,12.0,51,0.00,,,0.00,weatherlink.com 1.10,2013-04-02 06:14:00,
2013-04-02 02:29:00,43.4,26.0,30.17,NW,321,4.0,8.0,51,0.00,,,0.00,weatherlink.com 1.10,2013-04-02 06:29:00,
2013-04-02 02:44:00,43.1,25.0,30.17,East,96,2.0,9.0,50,0.00,,,0.00,weatherlink.com 1.10,2013-04-02 06:44:00,
2013-04-02 02:59:00,42.7,25.0,30.17,NNE,28,4.0,7.0,49,0.00,,,0.00,weatherlink.com 1.10,2013-04-02 06:59:00,
2013-04-02 03:14:00,42.4,24.0,30.18,NNW,336,6.0,8.0,48,0.00,,,0.00,weatherlink.com 1.10,2013-04-02 07:14:00,
2013-04-02 03:30:00,41.9,23.0,30.17,North,351,1.0,11.0,48,0.00,,,0.00,weatherlink.com 1.10,2013-04-02 07:30:00,
2013-04-02 03:45:00,41.5,22.0,30.18,East,91,3.0,11.0,47,0.00,,,0.00,weatherlink.com 1.10,2013-04-02 07:45:00,
2013-04-02 04:00:00,41.0,22.0,30.18,WSW,253,3.0,10.0,48,0.00,,,0.00,weatherlink.com 1.10,2013-04-02 08:00:00,
2013-04-02 04:15:00,40.7,22.0,30.19,NNW,338,4.0,10.0,47,0.00,,,0.00,weatherlink.com 1.10,2013-04-02 08:15:00,
2013-04-02 04:30:00,40.3,21.0,30.19,NW,307,7.0,8.0,47,0.00,,,0.00,weatherlink.com 1.10,2013-04-02 08:30:00,
2013-04-02 04:45:00,39.8,21.0,30.20,NW,306,0.0,3.0,47,0.00,,,0.00,weatherlink.com 1.10,2013-04-02 08:45:00,
2013-04-02 05:00:00,39.6,21.0,30.20,NW,306,1.0,5.0,48,0.00,,,0.00,weatherlink.com 1.10,2013-04-02 09:00:00,
2013-04-02 05:15:00,39.2,20.0,30.21,NNW,343,4.0,6.0,47,0.00,,,0.00,weatherlink.com 1.10,2013-04-02 09:15:00,
2013-04-02 05:30:00,38.9,21.0,30.22,NNW,348,2.0,6.0,48,0.00,,,0.00,weatherlink.com 1.10,2013-04-02 09:30:00,
2013-04-02 05:45:00,38.6,20.0,30.22,WNW,285,0.0,8.0,48,0.00,,,0.00,weatherlink.com 1.10,2013-04-02 09:45:00,
2013-04-02 06:00:00,38.2,21.0,30.23,North,8,2.0,6.0,50,0.00,,,0.00,weatherlink.com 1.10,2013-04-02 10:00:00,
2013-04-02 06:15:00,37.9,21.0,30.24,WNW,287,4.0,5.0,51,0.00,,,0.00,weatherlink.com 1.10,2013-04-02 10:15:00,
2013-04-02 06:30:00,37.6,21.0,30.25,ENE,69,1.0,9.0,52,0.00,,,0.00,weatherlink.com 1.10,2013-04-02 10:30:00,
2013-04-02 06:45:00,37.3,21.0,30.25,North,356,5.0,8.0,52,0.00,,,0.00,weatherlink.com 1.10,2013-04-02 10:45:00,
2013-04-02 07:00:00,37.1,21.0,30.25,NNW,345,6.0,8.0,52,0.00,,,0.00,weatherlink.com 1.10,2013-04-02 11:00:00,
2013-04-02 07:15:00,36.9,21.0,30.26,North,358,5.0,8.0,52,0.00,,,0.00,weatherlink.com 1.10,2013-04-02 11:15:00,
2013-04-02 07:30:00,36.8,21.0,30.26,NW,308,3.0,9.0,53,0.00,,,0.00,weatherlink.com 1.10,2013-04-02 11:30:00,
2013-04-02 07:45:00,37.1,21.0,30.27,ENE,76,0.0,7.0,52,0.00,,,0.00,weatherlink.com 1.10,2013-04-02 11:45:00,
2013-04-02 08:00:00,37.5,22.0,30.27,NNW,344,9.0,9.0,53,0.00,,,0.00,weatherlink.com 1.10,2013-04-02 12:00:00,
2013-04-02 08:15:00,37.9,22.0,30.28,NNW,335,7.0,11.0,53,0.00,,,0.00,weatherlink.com 1.10,2013-04-02 12:15:00,
2013-04-02 08:30:00,38.3,21.0,30.28,NW,323,5.0,10.0,50,0.00,,,0.00,weatherlink.com 1.10,2013-04-02 12:30:00,
2013-04-02 08:45:00,38.9,22.0,30.28,North,3,5.0,10.0,50,0.00,,,0.00,weatherlink.com 1.10,2013-04-02 12:45:00,
2013-04-02 09:00:00,39.8,21.0,30.29,NNE,26,3.0,8.0,48,0.00,,,0.00,weatherlink.com 1.10,2013-04-02 13:00:00,
2013-04-02 09:15:00,40.8,21.0,30.30,NNE,15,2.0,8.0,45,0.00,,,0.00,weatherlink.com 1.10,2013-04-02 13:15:00,
2013-04-02 09:30:00,41.6,20.0,30.30,NNW,341,6.0,10.0,43,0.00,,,0.00,weatherlink.com 1.10,2013-04-02 13:30:00,
2013-04-02 09:46:00,41.6,20.0,30.31,NNE,27,3.0,11.0,43,0.00,,,0.00,weatherlink.com 1.10,2013-04-02 13:46:00,
2013-04-02 10:01:00,42.2,20.0,30.30,NNE,33,4.0,11.0,42,0.00,,,0.00,weatherlink.com 1.10,2013-04-02 14:01:00,
2013-04-02 10:16:00,43.1,20.0,30.30,North,352,8.0,8.0,40,0.00,,,0.00,weatherlink.com 1.10,2013-04-02 14:16:00,
2013-04-02 10:31:00,44.1,21.0,30.30,East,100,2.0,8.0,40,0.00,,,0.00,weatherlink.com 1.10,2013-04-02 14:31:00,
2013-04-02 10:46:00,44.4,21.0,30.30,North,360,2.0,7.0,39,0.00,,,0.00,weatherlink.com 1.10,2013-04-02 14:46:00,
2013-04-02 11:01:00,45.6,20.0,30.31,NNW,342,7.0,7.0,36,0.00,,,0.00,weatherlink.com 1.10,2013-04-02 15:01:00,
2013-04-02 11:16:00,46.2,21.0,30.31,ENE,62,1.0,9.0,37,0.00,,,0.00,weatherlink.com 1.10,2013-04-02 15:16:00,
2013-04-02 12:01:00,49.0,19.0,30.31,NNW,339,0.0,7.0,31,0.00,,,0.00,weatherlink.com 1.10,2013-04-02 16:01:00,
2013-04-02 12:16:00,51.9,23.0,30.30,East,99,3.0,6.0,32,0.00,,,0.00,weatherlink.com 1.10,2013-04-02 16:16:00,
2013-04-02 12:31:00,50.7,18.0,30.30,NW,309,3.0,6.0,27,0.00,,,0.00,weatherlink.com 1.10,2013-04-02 16:31:00,
2013-04-02 12:46:00,54.0,20.0,30.29,SW,233,2.0,5.0,26,0.00,,,0.00,weatherlink.com 1.10,2013-04-02 16:46:00,
2013-04-02 13:01:00,52.7,18.0,30.29,NNE,23,2.0,8.0,25,0.00,,,0.00,weatherlink.com 1.10,2013-04-02 17:01:00,
2013-04-02 13:16:00,51.2,17.0,30.28,North,360,1.0,8.0,26,0.00,,,0.00,weatherlink.com 1.10,2013-04-02 17:16:00,
2013-04-02 13:31:00,51.8,16.0,30.28,ENE,59,1.0,9.0,24,0.00,,,0.00,weatherlink.com 1.10,2013-04-02 17:31:00,
2013-04-02 13:46:00,53.3,17.0,30.27,ENE,59,3.0,8.0,24,0.00,,,0.00,weatherlink.com 1.10,2013-04-02 17:46:00,
2013-04-02 14:01:00,53.3,15.0,30.27,NNW,344,2.0,4.0,22,0.00,,,0.00,weatherlink.com 1.10,2013-04-02 18:01:00,
2013-04-02 14:16:00,54.4,17.0,30.27,NNE,32,2.0,6.0,23,0.00,,,0.00,weatherlink.com 1.10,2013-04-02 18:16:00,
2013-04-02 14:31:00,53.0,19.0,30.26,ENE,77,2.0,8.0,26,0.00,,,0.00,weatherlink.com 1.10,2013-04-02 18:31:00,
2013-04-02 14:46:00,54.7,18.0,30.26,North,1,2.0,7.0,24,0.00,,,0.00,weatherlink.com 1.10,2013-04-02 18:46:00,
2013-04-02 15:01:00,52.1,17.0,30.25,NW,322,1.0,7.0,25,0.00,,,0.00,weatherlink.com 1.10,2013-04-02 19:01:00,
2013-04-02 15:31:00,53.2,17.0,30.24,WSW,249,1.0,9.0,24,0.00,,,0.00,weatherlink.com 1.10,2013-04-02 19:31:00,
2013-04-02 16:01:00,54.7,19.0,30.23,East,86,3.0,7.0,25,0.00,,,0.00,weatherlink.com 1.10,2013-04-02 20:01:00,
2013-04-02 16:16:00,57.9,20.0,30.22,SE,128,0.0,3.0,23,0.00,,,0.00,weatherlink.com 1.10,2013-04-02 20:16:00,
2013-04-02 16:31:00,57.6,19.0,30.22,ENE,65,1.0,6.0,22,0.00,,,0.00,weatherlink.com 1.10,2013-04-02 20:31:00,
2013-04-02 16:46:00,54.9,19.0,30.22,East,98,5.0,10.0,24,0.00,,,0.00,weatherlink.com 1.10,2013-04-02 20:46:00,
2013-04-02 17:01:00,55.0,18.0,30.22,WSW,258,4.0,6.0,23,0.00,,,0.00,weatherlink.com 1.10,2013-04-02 21:01:00,
2013-04-02 17:16:00,54.9,19.0,30.22,ENE,70,1.0,5.0,24,0.00,,,0.00,weatherlink.com 1.10,2013-04-02 21:16:00,
2013-04-02 17:32:00,54.2,19.0,30.23,East,85,0.0,5.0,25,0.00,,,0.00,weatherlink.com 1.10,2013-04-02 21:32:00,
2013-04-02 17:47:00,54.1,19.0,30.22,ESE,103,2.0,8.0,25,0.00,,,0.00,weatherlink.com 1.10,2013-04-02 21:47:00,
2013-04-02 18:02:00,53.6,18.0,30.23,West,281,2.0,5.0,25,0.00,,,0.00,weatherlink.com 1.10,2013-04-02 22:02:00,
2013-04-02 18:17:00,53.3,20.0,30.23,West,266,1.0,6.0,27,0.00,,,0.00,weatherlink.com 1.10,2013-04-02 22:17:00,
2013-04-02 18:32:00,52.4,20.0,30.22,SSE,159,2.0,5.0,28,0.00,,,0.00,weatherlink.com 1.10,2013-04-02 22:32:00,
2013-04-02 18:47:00,52.2,19.0,30.22,West,280,3.0,6.0,27,0.00,,,0.00,weatherlink.com 1.10,2013-04-02 22:47:00,
2013-04-02 19:02:00,52.5,21.0,30.22,NNW,343,1.0,3.0,29,0.00,,,0.00,weatherlink.com 1.10,2013-04-02 23:02:00,
2013-04-02 19:17:00,52.2,20.0,30.22,ENE,75,0.0,3.0,28,0.00,,,0.00,weatherlink.com 1.10,2013-04-02 23:17:00,
2013-04-02 19:32:00,52.5,20.0,30.22,North,10,0.0,1.0,28,0.00,,,0.00,weatherlink.com 1.10,2013-04-02 23:32:00,
2013-04-02 19:47:00,52.1,21.0,30.22,NNE,13,0.0,1.0,29,0.00,,,0.00,weatherlink.com 1.10,2013-04-02 23:47:00,
2013-04-02 20:02:00,51.5,21.0,30.23,WNW,287,0.0,3.0,30,0.00,,,0.00,weatherlink.com 1.10,2013-04-03 00:02:00,
2013-04-02 20:17:00,50.9,16.0,30.23,WNW,300,1.0,6.0,25,0.00,,,0.00,weatherlink.com 1.10,2013-04-03 00:17:00,
2013-04-02 20:32:00,50.6,17.0,30.24,NNW,345,3.0,8.0,26,0.00,,,0.00,weatherlink.com 1.10,2013-04-03 00:32:00,
2013-04-02 20:47:00,50.4,17.0,30.24,North,7,4.0,5.0,27,0.00,,,0.00,weatherlink.com 1.10,2013-04-03 00:47:00,
2013-04-02 21:02:00,50.2,15.0,30.24,NNW,347,0.0,4.0,25,0.00,,,0.00,weatherlink.com 1.10,2013-04-03 01:02:00,
2013-04-02 21:17:00,49.8,17.0,30.24,NW,311,1.0,8.0,27,0.00,,,0.00,weatherlink.com 1.10,2013-04-03 01:17:00,
2013-04-02 21:32:00,49.0,16.0,30.25,NNW,347,5.0,8.0,27,0.00,,,0.00,weatherlink.com 1.10,2013-04-03 01:32:00,
2013-04-02 21:47:00,48.5,16.0,30.26,North,359,9.0,12.0,27,0.00,,,0.00,weatherlink.com 1.10,2013-04-03 01:47:00,
2013-04-02 22:02:00,48.1,15.0,30.26,NNW,341,5.0,11.0,27,0.00,,,0.00,weatherlink.com 1.10,2013-04-03 02:02:00,
2013-04-02 22:32:00,47.6,15.0,30.27,ENE,77,3.0,8.0,27,0.00,,,0.00,weatherlink.com 1.10,2013-04-03 02:32:00,
2013-04-02 22:47:00,47.3,16.0,30.28,NNE,27,4.0,7.0,28,0.00,,,0.00,weatherlink.com 1.10,2013-04-03 02:47:00,
2013-04-02 23:02:00,47.1,17.0,30.28,NE,53,0.0,7.0,30,0.00,,,0.00,weatherlink.com 1.10,2013-04-03 03:02:00,
2013-04-02 23:17:00,46.8,17.0,30.28,West,264,1.0,6.0,30,0.00,,,0.00,weatherlink.com 1.10,2013-04-03 03:17:00,
2013-04-02 23:32:00,46.3,16.0,30.28,NNW,335,3.0,8.0,30,0.00,,,0.00,weatherlink.com 1.10,2013-04-03 03:32:00,
2013-04-02 23:47:00,46.0,17.0,30.28,NNW,348,5.0,6.0,31,0.00,,,0.00,weatherlink.com 1.10,2013-04-03 03:47:00,